Latest Weather Observations for Kununurra Airport

IDD60801

Issued at 11:31 am CST Sunday 28 November 2021 (issued every 10 minutes, with the page automatically refreshed every 10 minutes)

About weather observations | Map of weather stations | Latest weather observations for NT | Other Formats
Station Details ID: 002056 Name: KUNUNURRA AERO Lat: -15.78 Lon: 128.71 Height: 44.0 m
Data from the previous 72 hours. | See also: Recent months at Kununurra Airport
Date/Time
CST
Temp
°C
App
Temp
°C
Dew
Point
°C
Rel
Hum
%
Delta-T
°C
Wind Press
QNH
hPa
Press
MSL
hPa
Rain since
9am
mm
Dir  Spd
km/h
Gust
km/h
Spd
kts
Gust
kts
28/11:30am 37.2 36.0 16.2 29 13.4 E 17 28 9 15 1009.8 1009.5 0.0
28/11:00am 35.9 34.1 15.6 30 12.8 E 19 35 10 19 1010.0 1009.7 0.0
28/10:30am 36.2 34.6 16.4 31 12.7 ESE 20 30 11 16 1010.3 1010.0 0.0
28/10:00am 34.0 34.9 20.0 43 9.3 SE 15 20 8 11 1010.6 1010.3 0.0
28/09:30am 32.8 34.8 20.7 49 8.1 SSE 11 20 6 11 1010.6 1010.3 0.0
28/09:00am 31.8 35.8 23.1 60 6.0 SSE 7 9 4 5 1010.7 1010.4 0.0
28/08:30am 30.9 34.6 22.2 59 5.9 SSE 6 9 3 5 1010.6 1010.3 0.0
28/08:00am 29.7 33.8 23.2 68 4.5 SSW 7 9 4 5 1010.5 1010.2 0.0
28/07:30am 28.4 32.4 23.1 73 3.6 S 7 9 4 5 1010.3 1010.0 0.0
28/07:00am 26.9 32.5 23.6 82 2.3 CALM 0 0 0 0 1010.0 1009.7 0.0
28/06:30am 24.6 29.5 22.3 87 1.5 CALM 0 0 0 0 1009.4 1009.1 0.0
28/06:00am 24.8 29.3 22.3 86 1.7 SE 2 6 1 3 1008.9 1008.6 0.0
28/05:30am 25.0 29.9 22.3 85 1.8 CALM 0 0 0 0 1008.7 1008.4 0.0
28/05:00am 24.9 29.7 22.2 85 1.8 CALM 0 0 0 0 1008.3 1008.0 0.0
28/04:30am 24.8 29.5 21.9 84 1.9 CALM 0 0 0 0 1008.2 1007.9 0.0
28/04:00am 25.0 29.8 22.1 84 1.9 CALM 0 0 0 0 1008.3 1008.0 0.0
28/03:30am 25.5 30.1 21.8 80 2.5 CALM 0 0 0 0 1008.2 1007.9 0.0
28/03:00am 25.4 30.1 21.9 81 2.3 CALM 0 0 0 0 1008.0 1007.7 0.0
28/02:30am 25.9 30.7 22.2 80 2.5 CALM 0 0 0 0 1008.1 1007.8 0.0
28/02:00am 26.8 30.8 22.0 75 3.2 NNE 4 6 2 3 1008.1 1007.8 0.0
28/01:30am 26.7 31.0 21.9 75 3.2 NE 2 9 1 5 1008.5 1008.2 0.0
28/01:00am 27.0 31.1 22.2 75 3.2 N 4 9 2 5 1008.5 1008.2 0.0
28/12:30am 27.2 30.2 21.9 73 3.6 N 9 11 5 6 1008.6 1008.3 0.0
28/12:00am 27.0 30.4 22.0 74 3.4 N 7 9 4 5 1008.7 1008.4 0.0
 
Date/Time
CST
Temp
°C
App
Temp
°C
Dew
Point
°C
Rel
Hum
%
Delta-T
°C
Wind Press
QNH
hPa
Press
MSL
hPa
Rain since
9am
mm
Dir  Spd
km/h
Gust
km/h
Spd
kts
Gust
kts
27/11:30pm 27.6 31.1 21.9 71 3.8 N 6 9 3 5 1008.8 1008.5 0.0
27/11:00pm 28.3 30.7 21.6 67 4.5 NNE 11 13 6 7 1008.7 1008.4 0.0
27/10:30pm 28.5 30.9 21.5 66 4.7 NNE 11 11 6 6 1008.6 1008.3 0.0
27/10:00pm 28.9 31.8 21.7 65 4.8 N 9 13 5 7 1008.6 1008.3 0.0
27/09:30pm 29.5 31.8 21.4 61 5.4 N 11 13 6 7 1008.3 1008.0 0.0
27/09:00pm 30.2 32.3 21.0 58 6.1 N 11 13 6 7 1007.7 1007.4 0.0
27/08:30pm 31.1 33.4 21.3 56 6.6 N 11 15 6 8 1007.6 1007.3 0.0
27/08:00pm 32.0 32.9 20.9 52 7.4 N 17 20 9 11 1007.3 1006.9 0.0
27/07:30pm 32.7 34.0 20.2 47 8.3 N 13 17 7 9 1006.8 1006.4 0.0
27/07:00pm 33.6 34.5 19.3 43 9.4 N 13 19 7 10 1006.2 1005.8 0.0
27/06:30pm 35.1 34.9 18.6 37 10.8 N 17 24 9 13 1006.0 1005.6 0.0
27/06:00pm 36.7 37.3 18.7 34 11.9 N 13 20 7 11 1005.8 1005.4 0.0
27/05:30pm 37.1 37.8 16.1 29 13.4 E 7 13 4 7 1005.7 1005.3 0.0
27/05:00pm 36.3 35.4 15.9 29 12.9 NE 15 28 8 15 1005.7 1005.3 0.0
27/04:30pm 36.9 36.4 15.9 28 13.4 N 13 20 7 11 1005.8 1005.4 0.0
27/04:00pm 36.8 36.1 16.4 30 13.0 ENE 15 28 8 15 1005.9 1005.5 0.0
27/03:30pm 37.6 36.2 17.1 30 13.3 NE 20 35 11 19 1006.3 1005.9 0.0
27/03:00pm 36.9 35.3 16.5 30 13.1 ENE 20 32 11 17 1006.6 1006.2 0.0
27/02:30pm 37.6 36.2 17.1 30 13.3 ENE 20 32 11 17 1007.0 1006.6 0.0
27/02:00pm 37.0 35.2 16.0 28 13.4 E 20 33 11 18 1007.4 1007.0 0.0
27/01:30pm 37.3 36.0 17.3 30 13.0 E 20 32 11 17 1007.8 1007.5 0.0
27/01:00pm 36.7 34.1 16.8 30 12.8 ESE 26 37 14 20 1008.4 1008.1 0.0
27/12:30pm 36.2 33.6 16.9 32 12.4 NE 26 37 14 20 1009.0 1008.7 0.0
27/12:00pm 34.8 33.6 18.4 38 10.7 E 22 35 12 19 1009.5 1009.2 0.0
27/11:30am 34.5 34.3 19.3 40 10.1 E 19 28 10 15 1010.0 1009.7 0.0
27/11:00am 34.1 33.9 19.7 42 9.6 ENE 20 35 11 19 1010.5 1010.2 0.0
27/10:30am 33.2 34.6 21.0 48 8.2 E 15 20 8 11 1010.6 1010.3 0.0
27/10:00am 31.5 32.4 20.1 50 7.6 NE 15 22 8 12 1010.8 1010.5 0.0
27/09:30am 30.8 33.0 21.9 59 6.0 NNE 13 19 7 10 1010.7 1010.4 0.0
27/09:00am 30.0 32.6 22.7 65 5.0 NNE 13 17 7 9 1010.8 1010.5 0.0
27/08:30am 30.5 33.9 22.7 63 5.3 ENE 9 15 5 8 1010.5 1010.2 0.0
27/08:00am 29.3 32.4 22.8 68 4.4 NNE 11 13 6 7 1010.4 1010.1 0.0
27/07:30am 28.9 30.1 22.2 67 4.5 NE 19 24 10 13 1010.3 1010.0 0.0
27/07:00am 28.1 31.8 22.3 70 3.9 SE 6 9 3 5 1009.6 1009.3 0.0
27/06:30am 28.0 30.5 21.8 69 4.2 SSE 11 15 6 8 1008.9 1008.6 0.0
27/06:00am 27.2 29.8 21.2 69 4.0 SW 9 11 5 6 1008.3 1008.0 0.0
27/05:30am 27.5 30.5 22.0 72 3.7 S 9 11 5 6 1008.0 1007.7 0.0
27/05:00am 27.3 31.5 20.9 68 4.2 CALM 0 6 0 3 1007.7 1007.4 0.0
27/04:30am 26.7 29.6 21.0 71 3.8 ENE 7 9 4 5 1007.4 1007.0 0.0
27/04:00am 27.3 30.2 20.6 67 4.4 W 6 9 3 5 1007.0 1006.6 0.0
27/03:30am 28.0 30.5 20.3 63 5.1 SSE 7 9 4 5 1006.9 1006.5 0.0
27/03:00am 27.7 30.8 20.3 64 4.9 SSW 4 7 2 4 1007.0 1006.6 0.0
27/02:30am 27.9 29.9 19.9 61 5.2 S 9 15 5 8 1007.4 1007.0 0.0
27/02:00am 28.4 26.7 19.9 60 5.6 S 28 44 15 24 1008.0 1007.7 0.0
27/01:58am 28.5 26.9 20.0 60 5.6 S 28 44 15 24 1008.0 1007.7 0.0
27/01:30am 28.3 30.7 22.3 70 4.1 SE 13 17 7 9 1008.0 1007.7 0.0
27/01:00am 27.4 30.0 22.6 75 3.3 SE 13 19 7 10 1008.0 1007.7 0.0
27/12:30am 26.9 31.9 22.5 77 3.0 CALM 0 0 0 0 1007.7 1007.4 0.0
27/12:00am 26.9 31.9 22.5 77 3.0 CALM 0 0 0 0 1008.1 1007.8 0.0
 
Date/Time
CST
Temp
°C
App
Temp
°C
Dew
Point
°C
Rel
Hum
%
Delta-T
°C
Wind Press
QNH
hPa
Press
MSL
hPa
Rain since
9am
mm
Dir  Spd
km/h
Gust
km/h
Spd
kts
Gust
kts
26/11:30pm 26.8 31.9 22.6 78 2.8 CALM 0 0 0 0 1008.5 1008.2 0.0
26/11:00pm 26.8 31.2 22.8 79 2.7 N 4 9 2 5 1008.7 1008.4 0.0
26/10:30pm 26.5 31.6 22.6 79 2.6 CALM 0 2 0 1 1008.7 1008.4 0.0
26/10:00pm 26.6 30.2 22.4 78 2.8 N 7 9 4 5 1008.3 1008.0 0.0
26/09:30pm 26.4 30.0 22.3 78 2.8 NNW 7 9 4 5 1008.2 1007.9 0.0
26/09:00pm 26.4 29.2 22.3 78 2.8 NNE 11 17 6 9 1007.8 1007.5 0.0
26/08:30pm 27.8 31.3 21.1 67 4.5 N 4 11 2 6 1006.6 1006.2 0.0
26/08:00pm 28.2 32.5 21.2 65 4.7 CALM 0 0 0 0 1005.6 1005.2 0.0
26/07:30pm 27.9 31.0 21.4 67 4.4 ENE 7 11 4 6 1005.8 1005.4 0.0
26/07:00pm 28.2 28.6 21.7 68 4.4 NW 22 28 12 15 1005.5 1005.1 0.0
26/06:30pm 28.9 27.0 21.4 64 5.0 NW 33 43 18 23 1005.8 1005.4 0.0
26/06:20pm 29.1 27.6 21.8 64 4.9 NNW 32 43 17 23 1005.3 1004.9 0.0
26/06:09pm 30.6 29.6 22.7 62 5.4 NNW 32 44 17 24 1005.6 1005.2 0.0
26/06:00pm 31.1 31.0 23.5 64 5.3 N 30 41 16 22 1005.1 1004.7 0.0
26/05:36pm 34.3 35.0 23.0 51 7.8 E 24 35 13 19 1004.1 1003.7 0.0
26/05:30pm 34.9 34.1 19.3 40 10.3 ESE 22 30 12 16 1003.8 1003.4 0.0
26/05:28pm 35.4 34.6 19.3 38 10.7 ESE 22 30 12 16 1003.9 1003.5 0.0
26/05:18pm 36.4 36.8 20.6 39 10.7 ESE 19 26 10 14 1003.8 1003.4 0.0
26/05:00pm 36.5 37.7 19.9 38 11.1 SSE 13 28 7 15 1003.7 1003.3 0.0
26/04:30pm 37.8 38.6 17.2 29 13.4 S 9 13 5 7 1003.4 1003.0 0.0
26/04:00pm 37.9 38.2 17.8 30 13.1 SSE 13 20 7 11 1003.3 1002.9 0.0
26/03:30pm 38.8 39.3 17.5 28 13.9 SSW 11 17 6 9 1003.8 1003.4 0.0
26/03:00pm 39.0 40.1 18.8 30 13.4 SE 11 17 6 9 1004.2 1003.8 0.0
26/02:30pm 38.5 39.9 20.3 34 12.3 SE 13 19 7 10 1004.7 1004.3 0.0
26/02:00pm 38.2 40.0 19.6 34 12.5 SE 9 15 5 8 1005.2 1004.8 0.0
26/01:30pm 37.0 38.5 18.1 33 12.4 E 7 13 4 7 1005.7 1005.3 0.0
26/01:00pm 37.1 37.7 19.5 35 11.7 ENE 15 22 8 12 1006.4 1006.0 0.0
26/12:30pm 36.1 37.7 20.8 41 10.4 ENE 13 20 7 11 1006.9 1006.5 0.0
26/12:00pm 35.4 36.9 20.5 41 10.0 E 13 19 7 10 1007.5 1007.1 0.0
26/11:30am 35.6 38.3 22.2 46 9.2 ESE 11 17 6 9 1007.8 1007.5 0.0
26/11:00am 34.0 36.6 22.7 51 7.8 SE 13 17 7 9 1008.2 1007.9 0.0
26/10:30am 33.7 37.3 24.3 58 6.6 SE 13 20 7 11 1008.5 1008.2 0.0
26/10:00am 33.0 37.6 24.7 61 5.9 SE 9 17 5 9 1008.8 1008.5 0.0
26/09:30am 32.3 36.7 25.1 65 5.1 ESE 11 17 6 9 1008.8 1008.5 0.0
26/09:00am 31.6 36.3 25.0 68 4.7 ESE 9 13 5 7 1008.8 1008.5 0.0
26/08:30am 30.1 36.3 25.8 78 3.1 ESE 4 7 2 4 1008.9 1008.6 0.0
26/08:00am 29.6 35.6 26.0 81 2.6 NNE 6 9 3 5 1008.6 1008.3 0.0
26/07:30am 28.9 34.6 25.9 84 2.1 E 7 9 4 5 1008.4 1008.1 0.0
26/07:00am 27.7 33.5 25.7 89 1.4 S 6 7 3 4 1008.0 1007.7 0.0
26/06:30am 27.3 33.3 25.5 90 1.3 SSE 4 7 2 4 1007.7 1007.4 0.0
26/06:00am 26.9 33.4 25.1 90 1.3 CALM 0 0 0 0 1007.6 1007.3 0.0
26/05:30am 27.1 32.5 25.1 89 1.4 ESE 6 7 3 4 1007.2 1006.8 0.0
26/05:00am 27.0 32.3 25.2 90 1.3 ESE 7 11 4 6 1007.2 1006.8 0.0
26/04:30am 26.8 33.0 25.2 91 1.1 ESE 2 7 1 4 1007.0 1006.6 0.0
26/04:00am 26.7 32.7 24.9 90 1.3 WNW 2 6 1 3 1006.9 1006.5 0.0
26/03:30am 26.5 31.6 24.7 90 1.3 NW 6 7 3 4 1006.5 1006.1 0.0
26/03:00am 27.0 32.3 25.2 90 1.3 SW 7 9 4 5 1006.4 1006.0 0.0
26/02:30am 27.7 33.3 25.5 88 1.6 ESE 6 11 3 6 1006.3 1005.9 0.0
26/02:00am 27.1 33.4 24.7 87 1.7 CALM 0 0 0 0 1006.3 1005.9 0.0
26/01:30am 27.2 33.5 24.7 86 1.7 CALM 0 0 0 0 1006.4 1006.0 0.0
26/01:00am 27.2 33.3 24.5 85 1.9 CALM 0 0 0 0 1006.8 1006.4 0.0
26/12:30am 27.4 32.5 24.7 85 1.9 N 6 7 3 4 1007.2 1006.8 0.0
26/12:00am 27.7 32.6 24.7 84 2.1 NNE 7 7 4 4 1007.5 1007.1 0.0
 
Date/Time
CST
Temp
°C
App
Temp
°C
Dew
Point
°C
Rel
Hum
%
Delta-T
°C
Wind Press
QNH
hPa
Press
MSL
hPa
Rain since
9am
mm
Dir  Spd
km/h
Gust
km/h
Spd
kts
Gust
kts
25/11:30pm 28.1 32.7 24.7 82 2.4 NNE 9 11 5 6 1007.7 1007.4 0.0
25/11:00pm 28.4 31.9 24.2 78 2.9 NNE 13 17 7 9 1008.0 1007.7 0.0
25/10:30pm 28.4 32.2 24.0 77 3.1 NNE 11 13 6 7 1007.9 1007.6 0.0
25/10:00pm 28.5 31.4 23.9 76 3.2 NNE 15 17 8 9 1007.7 1007.4 0.0
25/09:30pm 28.7 32.3 23.8 75 3.4 N 11 15 6 8 1007.4 1007.0 0.0
25/09:00pm 29.1 32.0 23.8 73 3.7 N 15 19 8 10 1007.0 1006.6 0.0
25/08:30pm 29.3 32.0 23.5 71 4.0 N 15 19 8 10 1006.6 1006.2 0.0
25/08:00pm 29.7 32.7 23.4 69 4.3 N 13 15 7 8 1006.4 1006.0 0.0
25/07:30pm 30.3 33.1 23.0 65 5.0 N 13 17 7 9 1006.1 1005.7 0.0
25/07:00pm 30.9 32.8 22.8 62 5.6 N 17 20 9 11 1005.8 1005.4 0.0
25/06:30pm 31.3 32.4 23.1 61 5.7 N 22 30 12 16 1005.3 1004.9 0.0
25/06:00pm 32.9 35.0 24.1 60 6.2 NNE 20 26 11 14 1005.2 1004.8 0.0
25/05:45pm 33.1 35.1 24.0 59 6.4 N 20 32 11 17 1004.8 1004.4 0.0
25/05:35pm 33.4 35.3 23.7 56 6.8 N 20 30 11 16 1004.7 1004.3 0.0
25/05:30pm 33.7 35.6 23.7 56 7.0 N 20 30 11 16 1004.5 1004.1 0.0
25/05:00pm 33.8 34.0 23.5 55 7.2 NNE 28 37 15 20 1004.5 1004.1 0.0
25/04:30pm 33.3 33.3 23.0 54 7.1 N 28 37 15 20 1004.3 1003.9 0.0
25/04:03pm 33.6 35.2 22.1 51 7.9 NNE 17 35 9 19 1004.3 1003.9 0.0
25/04:00pm 36.3 38.8 21.7 42 10.0 NNE 11 17 6 9 1004.1 1003.7 0.0
25/03:30pm 36.3 39.9 22.1 43 9.8 ESE 6 15 3 8 1004.3 1003.9 0.0
25/03:00pm 36.2 38.5 22.0 43 9.8 N 13 19 7 10 1004.7 1004.3 0.0
25/02:30pm 36.3 39.6 22.5 45 9.6 NE 9 20 5 11 1005.0 1004.6 0.0
25/02:00pm 35.4 38.4 22.7 47 8.8 NE 11 20 6 11 1005.5 1005.1 0.0
25/01:30pm 35.6 38.7 23.6 50 8.4 NNE 13 20 7 11 1006.0 1005.6 0.0

Other formats

Comma delimited format used in spreadsheet applications
http://www.bom.gov.au/fwo/IDD60801/IDD60801.94216.axf

JavaScript Object Notation format (JSON) in row-major order
http://www.bom.gov.au/fwo/IDD60801/IDD60801.94216.json

Data quality

Most of these data are generated automatically and are frequently updated. Quality checks on data are not normally performed. It is possible for incorrect values to appear. Refer to information at About Latest Weather Observations and please check the disclaimer before using these data.